createdAt,value
2022-10-11T00:01:00.644Z,8.65
2022-10-11T00:03:36.139Z,8.74
2022-10-11T00:06:06.276Z,8.78
2022-10-11T00:08:35.804Z,8.80
2022-10-11T00:11:07.078Z,8.84
2022-10-11T00:13:35.539Z,8.88
2022-10-11T00:16:08.974Z,8.91
2022-10-11T00:18:38.113Z,8.92
2022-10-11T00:21:09.710Z,8.99
2022-10-11T00:23:38.137Z,9.02
2022-10-11T00:26:09.302Z,9.02
2022-10-11T00:28:38.794Z,8.97
2022-10-11T00:31:09.823Z,8.94
2022-10-11T00:33:38.011Z,8.92
2022-10-11T00:36:07.596Z,8.93
2022-10-11T00:38:36.358Z,8.90
2022-10-11T00:41:04.410Z,8.88
2022-10-11T00:43:33.342Z,8.84
2022-10-11T00:46:13.706Z,8.85
2022-10-11T00:49:02.036Z,8.84
2022-10-11T00:51:39.427Z,8.86
2022-10-11T00:54:13.928Z,8.89
2022-10-11T00:56:46.010Z,8.88
2022-10-11T00:59:21.642Z,8.82
2022-10-11T01:01:50.153Z,8.76
2022-10-11T01:04:18.407Z,8.74
2022-10-11T01:06:47.829Z,8.71
2022-10-11T01:09:16.025Z,8.68
2022-10-11T01:11:45.149Z,8.65
2022-10-11T01:14:38.643Z,8.53
2022-10-11T01:17:39.798Z,8.47
2022-10-11T01:20:23.555Z,8.41
2022-10-11T01:23:22.671Z,8.34
2022-10-11T01:25:53.867Z,8.39
2022-10-11T01:28:28.127Z,8.41
2022-10-11T01:31:03.791Z,8.35
2022-10-11T01:33:56.413Z,8.34
2022-10-11T01:36:33.609Z,8.33
2022-10-11T01:39:14.804Z,8.29
2022-10-11T01:42:05.477Z,8.29
2022-10-11T01:44:35.838Z,8.25
2022-10-11T01:47:03.949Z,8.20
2022-10-11T01:49:31.994Z,8.12
2022-10-11T01:52:04.251Z,8.13
2022-10-11T01:54:56.572Z,8.08
2022-10-11T01:58:03.753Z,8.10
2022-10-11T02:00:45.377Z,8.07
2022-10-11T02:03:21.997Z,8.10
2022-10-11T02:05:54.941Z,8.07
2022-10-11T02:08:53.973Z,8.08
2022-10-11T02:11:31.657Z,8.06
2022-10-11T02:14:03.037Z,8.07
2022-10-11T02:17:08.732Z,8.02
2022-10-11T02:19:43.183Z,7.98
2022-10-11T02:22:22.649Z,7.93
2022-10-11T02:24:54.241Z,7.94
2022-10-11T02:27:26.842Z,7.96
2022-10-11T02:29:56.942Z,7.98
2022-10-11T02:32:26.734Z,7.95
2022-10-11T02:34:57.832Z,7.93
2022-10-11T02:37:50.658Z,7.86
2022-10-11T02:40:25.474Z,7.80
2022-10-11T02:43:18.470Z,7.84
2022-10-11T02:45:58.094Z,7.81
2022-10-11T02:48:29.499Z,7.81
2022-10-11T02:50:58.728Z,7.85
2022-10-11T02:53:27.391Z,7.90
2022-10-11T02:55:56.236Z,7.97
2022-10-11T02:58:25.732Z,8.00
2022-10-11T03:00:54.011Z,8.05
2022-10-11T03:03:22.135Z,8.03
2022-10-11T03:05:50.122Z,8.09
2022-10-11T03:08:18.426Z,8.15
2022-10-11T03:10:46.438Z,8.18
2022-10-11T03:13:18.095Z,8.19
2022-10-11T03:16:02.357Z,8.22
2022-10-11T03:18:35.642Z,8.18
2022-10-11T03:21:04.017Z,8.15
2022-10-11T03:23:32.409Z,8.17
2022-10-11T03:26:00.595Z,8.17
2022-10-11T03:28:28.929Z,8.19
2022-10-11T03:30:57.438Z,8.18
2022-10-11T03:33:25.791Z,8.15
2022-10-11T03:35:53.894Z,8.12
2022-10-11T03:38:22.912Z,8.17
2022-10-11T03:40:51.075Z,8.22
2022-10-11T03:43:19.256Z,8.26
2022-10-11T03:45:47.331Z,8.28
2022-10-11T03:48:15.490Z,8.27
2022-10-11T03:50:43.588Z,8.31
2022-10-11T03:53:11.791Z,8.38
2022-10-11T03:55:41.151Z,8.41
2022-10-11T03:58:09.702Z,8.52
2022-10-11T04:00:37.975Z,8.58
2022-10-11T04:03:06.064Z,8.61
2022-10-11T04:05:34.169Z,8.59
2022-10-11T04:08:02.345Z,8.54
2022-10-11T04:10:33.537Z,8.54
2022-10-11T04:13:01.756Z,8.64
2022-10-11T04:15:29.734Z,8.69
2022-10-11T04:17:57.876Z,8.73
2022-10-11T04:20:26.007Z,8.80
2022-10-11T04:22:56.298Z,8.81
2022-10-11T04:25:24.789Z,8.85
2022-10-11T04:27:52.843Z,8.93
2022-10-11T04:30:21.290Z,8.96
2022-10-11T04:32:49.796Z,8.95
2022-10-11T04:35:17.990Z,8.93
2022-10-11T04:37:47.281Z,8.93
2022-10-11T04:40:15.469Z,8.98
2022-10-11T04:42:44.023Z,8.95
2022-10-11T04:45:12.122Z,8.98
2022-10-11T04:47:41.277Z,8.97
2022-10-11T04:50:09.623Z,8.98
2022-10-11T04:52:44.965Z,8.99
2022-10-11T04:55:16.529Z,9.06
2022-10-11T04:57:50.189Z,9.08
2022-10-11T05:00:19.181Z,9.09
2022-10-11T05:02:48.212Z,9.10
2022-10-11T05:05:17.969Z,9.10
2022-10-11T05:07:47.955Z,9.17
2022-10-11T05:10:19.138Z,9.22
2022-10-11T05:12:47.731Z,9.27
2022-10-11T05:15:19.976Z,9.28
2022-10-11T05:17:49.075Z,9.31
2022-10-11T05:20:17.960Z,9.41
2022-10-11T05:22:46.417Z,9.53
2022-10-11T05:28:06.728Z,9.74
2022-10-11T05:30:39.866Z,9.84
2022-10-11T05:33:19.051Z,9.96
2022-10-11T05:36:04.583Z,10.06
2022-10-11T05:38:42.127Z,10.17
2022-10-11T05:41:17.110Z,10.24
2022-10-11T05:43:52.369Z,10.28
2022-10-11T05:46:24.288Z,10.31
2022-10-11T05:49:02.200Z,10.32
2022-10-11T05:51:44.456Z,10.35
2022-10-11T07:53:15.786Z,20.22
2022-10-11T08:20:51.979Z,21.17
2022-10-11T08:23:28.107Z,21.11
2022-10-11T08:26:01.692Z,21.11
2022-10-11T08:28:31.968Z,21.42
2022-10-11T08:31:08.017Z,21.33
2022-10-11T08:33:59.865Z,21.21
2022-10-11T08:36:45.052Z,21.01
2022-10-11T08:39:36.381Z,21.07
2022-10-11T08:42:54.890Z,21.13
2022-10-11T08:45:56.803Z,21.20
2022-10-11T08:49:15.675Z,22.14
2022-10-11T10:08:10.466Z,31.31
2022-10-11T10:10:46.277Z,31.01
2022-10-11T10:13:38.241Z,30.06
2022-10-11T10:16:35.419Z,29.43
2022-10-11T10:19:33.535Z,28.56
2022-10-11T10:22:20.948Z,28.03
2022-10-11T10:24:53.623Z,27.61
2022-10-11T10:27:33.660Z,27.17
2022-10-11T10:30:08.379Z,26.30
2022-10-11T10:32:57.371Z,25.86
2022-10-11T10:35:32.053Z,25.38
2022-10-11T10:38:09.065Z,24.90
2022-10-11T10:40:57.175Z,24.27
2022-10-11T10:43:30.734Z,23.70
2022-10-11T10:46:51.736Z,23.32
2022-10-11T10:50:00.364Z,22.95
2022-10-11T10:53:02.207Z,22.77
2022-10-11T10:55:46.464Z,22.47
2022-10-11T10:58:52.889Z,22.38
2022-10-11T11:01:30.692Z,22.03
2022-10-11T11:04:25.445Z,21.84
2022-10-11T11:07:25.202Z,21.58
2022-10-11T11:10:23.467Z,21.50
2022-10-11T11:13:13.146Z,21.45
2022-10-11T11:15:45.310Z,21.46
2022-10-11T11:18:20.591Z,21.48
2022-10-11T11:21:01.798Z,21.43
2022-10-11T11:23:42.552Z,21.29
2022-10-11T11:26:29.610Z,21.32
2022-10-11T11:29:20.216Z,21.31
2022-10-11T11:32:07.228Z,21.28
2022-10-11T11:34:43.171Z,21.27
2022-10-11T11:37:28.716Z,21.26
2022-10-11T11:40:22.818Z,21.18
2022-10-11T11:43:01.728Z,21.14
2022-10-11T11:45:49.369Z,21.19
2022-10-11T11:48:26.762Z,21.10
2022-10-11T11:51:05.331Z,21.07
2022-10-11T11:53:51.224Z,21.18
2022-10-11T11:56:27.249Z,21.30
2022-10-11T11:59:06.380Z,21.31
2022-10-11T12:01:49.343Z,21.19
2022-10-11T12:04:40.713Z,21.21
2022-10-11T12:07:21.061Z,21.30
2022-10-11T12:09:54.629Z,21.27
2022-10-11T12:12:34.056Z,21.14
2022-10-11T12:15:17.030Z,21.16
2022-10-11T12:17:58.646Z,21.15
2022-10-11T12:20:38.070Z,21.13
2022-10-11T12:23:30.462Z,21.05
2022-10-11T12:26:19.902Z,20.88
2022-10-11T12:29:02.208Z,20.80
2022-10-11T12:31:36.937Z,20.81
2022-10-11T12:34:07.953Z,20.74
2022-10-11T12:36:44.276Z,20.67
2022-10-11T12:39:18.639Z,20.53
2022-10-11T12:41:47.570Z,20.39
2022-10-11T12:44:18.407Z,20.29
2022-10-11T12:46:55.182Z,20.17
2022-10-11T12:49:38.572Z,20.10
2022-10-11T12:52:40.651Z,20.05
2022-10-11T12:55:35.621Z,19.97
2022-10-11T12:58:23.662Z,19.93
2022-10-11T13:00:58.151Z,19.86
2022-10-11T13:03:42.173Z,19.82
2022-10-11T13:06:28.557Z,19.78
2022-10-11T13:09:05.966Z,19.78
2022-10-11T13:11:40.647Z,19.79
2022-10-11T13:14:11.817Z,19.70
2022-10-11T13:17:06.703Z,19.55
2022-10-11T13:19:38.151Z,19.50
2022-10-11T13:22:23.417Z,19.44
2022-10-11T13:24:58.191Z,19.36
2022-10-11T13:27:28.071Z,19.30
2022-10-11T13:30:01.211Z,19.25
2022-10-11T13:32:31.960Z,19.16
2022-10-11T13:35:07.108Z,19.00
2022-10-11T13:37:45.018Z,18.89
2022-10-11T13:40:16.609Z,18.80
2022-10-11T13:42:46.279Z,18.67
2022-10-11T13:45:19.476Z,18.51
2022-10-11T13:47:49.095Z,18.39
2022-10-11T13:50:23.653Z,18.32
2022-10-11T13:52:57.539Z,18.24
2022-10-11T13:55:29.106Z,18.13
2022-10-11T13:58:00.816Z,17.98
2022-10-11T14:00:36.972Z,17.99
2022-10-11T14:03:15.911Z,17.95
2022-10-11T14:05:53.616Z,17.87
2022-10-11T14:08:44.183Z,17.86
2022-10-11T14:11:14.888Z,17.76
2022-10-11T14:13:44.958Z,17.71
2022-10-11T14:16:16.929Z,17.67
2022-10-11T14:18:49.109Z,17.61
2022-10-11T14:21:20.494Z,17.58
2022-10-11T14:23:53.086Z,17.57
2022-10-11T14:26:23.180Z,17.54
2022-10-11T14:28:58.987Z,17.50
2022-10-11T14:31:32.313Z,17.43
2022-10-11T14:34:00.711Z,17.40
2022-10-11T14:36:28.885Z,17.36
2022-10-11T14:38:57.085Z,17.26
2022-10-11T14:41:25.159Z,17.23
2022-10-11T14:43:56.478Z,17.20
2022-10-11T14:46:26.877Z,17.18
2022-10-11T14:48:56.520Z,17.16
2022-10-11T14:51:31.233Z,17.12
2022-10-11T14:53:59.425Z,17.02
2022-10-11T14:56:27.520Z,16.95
2022-10-11T14:58:55.730Z,16.91
2022-10-11T15:01:23.858Z,16.88
2022-10-11T15:03:51.977Z,16.85
2022-10-11T15:06:24.563Z,16.78
2022-10-11T15:08:52.699Z,16.73
2022-10-11T15:11:22.422Z,16.68
2022-10-11T15:13:50.713Z,16.63
2022-10-11T15:16:20.546Z,16.56
2022-10-11T15:18:51.986Z,16.47
2022-10-11T15:21:22.819Z,16.39
2022-10-11T15:23:54.578Z,16.30
2022-10-11T15:26:26.229Z,16.20
2022-10-11T15:28:56.533Z,16.15
2022-10-11T15:31:24.735Z,16.12
2022-10-11T15:33:53.047Z,16.07
2022-10-11T15:36:22.952Z,16.03
2022-10-11T15:38:51.564Z,15.95
2022-10-11T15:41:20.238Z,15.88
2022-10-11T15:43:49.915Z,15.84
2022-10-11T15:46:22.189Z,15.80
2022-10-11T15:48:51.932Z,15.75
2022-10-11T15:51:21.166Z,15.70
2022-10-11T15:53:49.326Z,15.67
2022-10-11T15:56:19.049Z,15.61
2022-10-11T15:58:47.299Z,15.55
2022-10-11T16:01:20.142Z,15.49
2022-10-11T16:03:49.850Z,15.46
2022-10-11T16:06:19.184Z,15.46
2022-10-11T16:08:48.074Z,15.43
2022-10-11T16:11:16.311Z,15.38
2022-10-11T16:13:45.340Z,15.35
2022-10-11T16:16:13.548Z,15.31
2022-10-11T16:18:41.846Z,15.27
2022-10-11T16:21:15.579Z,15.24
2022-10-11T16:23:43.637Z,15.21
2022-10-11T16:26:14.243Z,15.19
2022-10-11T16:28:42.817Z,15.13
2022-10-11T16:31:16.944Z,15.09
2022-10-11T16:33:48.138Z,15.07
2022-10-11T16:36:36.628Z,15.07
2022-10-11T16:39:09.432Z,15.06
2022-10-11T16:41:37.696Z,15.06
2022-10-11T16:44:07.040Z,15.08
2022-10-11T16:46:35.186Z,15.07
2022-10-11T16:49:03.651Z,15.04
2022-10-11T16:51:32.049Z,15.05
2022-10-11T16:54:01.211Z,14.99
2022-10-11T16:56:29.287Z,14.94
2022-10-11T16:58:57.511Z,14.89
2022-10-11T17:01:26.198Z,14.86
2022-10-11T17:03:54.370Z,14.88
2022-10-11T17:06:22.985Z,14.89
2022-10-11T17:08:51.113Z,14.90
2022-10-11T17:11:19.310Z,14.91
2022-10-11T17:13:47.633Z,14.88
2022-10-11T17:16:17.605Z,14.84
2022-10-11T17:18:46.295Z,14.80
2022-10-11T17:21:16.721Z,14.76
2022-10-11T17:23:45.450Z,14.70
2022-10-11T17:26:24.988Z,14.72
2022-10-11T17:28:57.703Z,14.74
2022-10-11T17:31:27.063Z,14.74
2022-10-11T17:33:58.583Z,14.73
2022-10-11T17:36:34.856Z,14.68
2022-10-11T17:39:08.845Z,14.64
2022-10-11T17:41:37.178Z,14.62
2022-10-11T17:44:05.504Z,14.62
2022-10-11T17:46:34.029Z,14.60
2022-10-11T17:49:04.979Z,14.60
2022-10-11T17:51:35.469Z,14.55
2022-10-11T17:54:04.749Z,14.47
2022-10-11T17:56:37.649Z,14.32
2022-10-11T17:59:07.117Z,14.24
2022-10-11T18:01:35.917Z,14.20
2022-10-11T18:04:06.378Z,14.16
2022-10-11T18:06:39.977Z,14.15
2022-10-11T18:09:08.133Z,14.12
2022-10-11T18:11:36.259Z,14.10
2022-10-11T18:14:05.450Z,14.11
2022-10-11T18:16:34.489Z,14.12
2022-10-11T18:19:07.878Z,14.14
2022-10-11T18:21:37.900Z,14.17
2022-10-11T18:24:11.025Z,14.19
2022-10-11T18:26:39.460Z,14.20
2022-10-11T18:29:07.890Z,14.17
2022-10-11T18:31:36.077Z,14.12
2022-10-11T18:34:05.422Z,14.10
2022-10-11T18:36:33.419Z,14.11
2022-10-11T18:39:04.356Z,14.14
2022-10-11T18:41:34.138Z,14.16
2022-10-11T18:44:05.272Z,14.18
2022-10-11T18:46:34.390Z,14.21
2022-10-11T18:49:03.155Z,14.22
2022-10-11T18:51:34.324Z,14.23
2022-10-11T18:54:02.887Z,14.23
2022-10-11T18:56:32.799Z,14.20
2022-10-11T18:59:01.557Z,14.17
2022-10-11T19:01:34.578Z,14.18
2022-10-11T19:04:04.668Z,14.14
2022-10-11T19:06:38.839Z,14.09
2022-10-11T19:09:13.317Z,14.05
2022-10-11T19:11:41.883Z,14.02
2022-10-11T19:14:14.613Z,14.04
2022-10-11T19:16:46.475Z,14.05
2022-10-11T19:19:14.581Z,14.06
2022-10-11T19:21:43.154Z,14.03
2022-10-11T19:24:11.334Z,14.05
2022-10-11T19:26:41.045Z,14.06
2022-10-11T19:29:15.063Z,14.07
2022-10-11T19:31:45.723Z,14.09
2022-10-11T19:34:14.019Z,14.08
2022-10-11T19:36:43.012Z,14.07
2022-10-11T19:39:16.494Z,14.04
2022-10-11T19:41:45.190Z,13.99
2022-10-11T19:44:14.733Z,13.98
2022-10-11T19:46:52.033Z,13.96
2022-10-11T19:49:25.157Z,13.94
2022-10-11T19:51:55.560Z,13.93
2022-10-11T19:54:24.171Z,13.92
2022-10-11T19:56:52.819Z,13.92
2022-10-11T19:59:21.000Z,13.93
2022-10-11T20:01:52.720Z,13.92
2022-10-11T20:04:50.656Z,13.91
2022-10-11T20:07:10.735Z,13.90
2022-10-11T20:09:39.089Z,13.89
2022-10-11T20:12:07.607Z,13.90
2022-10-11T20:14:35.718Z,13.91
2022-10-11T20:17:04.028Z,13.88
2022-10-11T20:19:32.118Z,13.83
2022-10-11T20:22:01.083Z,13.81
2022-10-11T20:24:33.350Z,13.81
2022-10-11T20:27:05.639Z,13.81
2022-10-11T20:29:34.110Z,13.79
2022-10-11T20:32:02.292Z,13.79
2022-10-11T20:34:31.104Z,13.80
2022-10-11T20:36:59.695Z,13.77
2022-10-11T20:39:27.755Z,13.75
2022-10-11T20:41:55.780Z,13.74
2022-10-11T20:44:24.028Z,13.71
2022-10-11T20:46:52.093Z,13.70
2022-10-11T20:49:20.746Z,13.68
2022-10-11T20:51:49.499Z,13.65
2022-10-11T20:54:17.522Z,13.65
2022-10-11T20:56:46.078Z,13.64
2022-10-11T20:59:14.171Z,13.59
2022-10-11T21:01:43.225Z,13.55
2022-10-11T21:04:18.505Z,13.51
2022-10-11T21:06:48.442Z,13.46
2022-10-11T21:09:17.587Z,13.43
2022-10-11T21:11:46.489Z,13.43
2022-10-11T21:14:15.087Z,13.42
2022-10-11T21:16:43.268Z,13.42
2022-10-11T21:19:15.289Z,13.38
2022-10-11T21:21:46.507Z,13.35
2022-10-11T21:24:17.714Z,13.31
2022-10-11T21:26:45.855Z,13.27
2022-10-11T21:29:14.228Z,13.28
2022-10-11T21:31:42.209Z,13.24
2022-10-11T21:34:10.226Z,13.20
2022-10-11T21:36:38.470Z,13.16
2022-10-11T21:39:06.497Z,13.14
2022-10-11T21:41:35.386Z,13.15
2022-10-11T21:44:03.585Z,13.15
2022-10-11T21:46:54.463Z,13.12
2022-10-11T21:49:20.703Z,13.11
2022-10-11T21:51:48.833Z,13.11
2022-10-11T21:54:17.303Z,13.10
2022-10-11T21:56:45.451Z,13.09
2022-10-11T21:59:14.146Z,13.07
2022-10-11T22:01:43.429Z,13.04
2022-10-11T22:04:12.192Z,12.99
2022-10-11T22:06:40.705Z,12.88
2022-10-11T22:09:08.940Z,12.83
2022-10-11T22:11:37.553Z,12.80
2022-10-11T22:14:05.948Z,12.78
2022-10-11T22:16:35.285Z,12.77
2022-10-11T22:19:03.757Z,12.75
2022-10-11T22:21:32.156Z,12.69
2022-10-11T22:24:00.364Z,12.58
2022-10-11T22:26:30.979Z,12.48
2022-10-11T22:29:00.618Z,12.33
2022-10-11T22:31:29.674Z,12.26
2022-10-11T22:33:59.406Z,12.26
2022-10-11T22:36:30.622Z,12.30
2022-10-11T22:38:59.294Z,12.33
2022-10-11T22:41:27.329Z,12.35
2022-10-11T22:43:55.368Z,12.33
2022-10-11T22:46:23.602Z,12.36
2022-10-11T22:48:51.782Z,12.38
2022-10-11T22:51:20.005Z,12.40
2022-10-11T22:53:48.642Z,12.36
2022-10-11T22:56:16.765Z,12.28
2022-10-11T22:58:44.868Z,12.24
2022-10-11T23:01:15.987Z,12.21
2022-10-11T23:03:48.518Z,12.15
2022-10-11T23:06:17.333Z,12.15
2022-10-11T23:08:45.393Z,12.12
2022-10-11T23:11:13.694Z,12.11
2022-10-11T23:13:41.791Z,12.14
2022-10-11T23:16:12.201Z,12.17
2022-10-11T23:18:40.489Z,12.16
2022-10-11T23:21:08.977Z,12.12
2022-10-11T23:23:39.902Z,12.15
2022-10-11T23:26:13.871Z,12.17
2022-10-11T23:28:43.322Z,12.16
2022-10-11T23:31:18.853Z,12.18
2022-10-11T23:33:48.090Z,12.21
2022-10-11T23:36:21.811Z,12.23
2022-10-11T23:38:53.980Z,12.26
2022-10-11T23:41:23.641Z,12.26
2022-10-11T23:43:52.661Z,12.25
2022-10-11T23:46:21.028Z,12.18
2022-10-11T23:48:49.163Z,12.13
2022-10-11T23:51:17.350Z,12.09
2022-10-11T23:53:45.544Z,12.05
2022-10-11T23:56:13.861Z,12.04
2022-10-11T23:58:42.027Z,12.02
